Time;durP1;ratioP1;P1;durP2;ratioP2;P2;SDS_P1;SDS_P2;PMS_P1;PMS_P2;Temp;Humidity;BMP_temperature;BMP_pressure;BME280_temperature;BME280_humidity;BME280_pressure;Samples;Min_cycle;Max_cycle;Signal;HPM_P1;HPM_P2
2023/02/18 00:01:09;;;;;;;;;;;11.80;99.90;;;;;;5029745;28;20334;-65
2023/02/18 00:03:35;;;;;;;;;;;11.80;99.90;;;;;;5029125;28;19924;-65
2023/02/18 00:06:00;;;;;;;;;;;11.80;99.90;;;;;;5030089;28;19913;-64
2023/02/18 00:08:25;;;;;;;;;;;11.80;99.90;;;;;;5029521;28;20008;-64
2023/02/18 00:10:52;;;;;;;;;;;11.70;99.90;;;;;;5028945;28;19916;-65
2023/02/18 00:13:17;;;;;;;;;;;11.70;99.90;;;;;;5033181;28;19986;-64
2023/02/18 00:15:42;;;;;;;;;;;11.70;99.90;;;;;;5028951;28;20452;-65
2023/02/18 00:18:08;;;;;;;;;;;11.70;99.90;;;;;;5028248;28;19920;-64
2023/02/18 00:20:35;;;;;;;;;;;11.70;99.90;;;;;;5029963;28;19913;-64
2023/02/18 00:23:01;;;;;;;;;;;11.70;99.90;;;;;;5027563;28;19928;-64
2023/02/18 00:25:26;;;;;;;;;;;11.70;99.90;;;;;;5029951;28;19913;-63
2023/02/18 00:27:52;;;;;;;;;;;11.70;99.90;;;;;;5031333;28;19980;-63
2023/02/18 00:30:17;;;;;;;;;;;11.70;99.90;;;;;;5034404;28;19951;-64
2023/02/18 00:32:43;;;;;;;;;;;11.70;99.90;;;;;;5032478;28;19968;-64
2023/02/18 00:35:08;;;;;;;;;;;11.70;99.90;;;;;;5033189;28;19927;-64
2023/02/18 00:37:34;;;;;;;;;;;11.70;99.90;;;;;;5032539;28;19921;-64
2023/02/18 00:39:59;;;;;;;;;;;11.70;99.90;;;;;;5034477;28;20028;-63
2023/02/18 00:42:25;;;;;;;;;;;11.70;99.90;;;;;;5029101;28;19924;-64
2023/02/18 00:44:50;;;;;;;;;;;11.70;99.90;;;;;;5033620;28;20371;-62
2023/02/18 00:47:15;;;;;;;;;;;11.70;99.90;;;;;;5034311;28;20334;-63
2023/02/18 00:49:41;;;;;;;;;;;11.70;99.90;;;;;;5029668;28;19913;-63
2023/02/18 00:52:06;;;;;;;;;;;11.70;99.90;;;;;;5032053;28;19920;-63
2023/02/18 00:54:32;;;;;;;;;;;11.70;99.90;;;;;;5030960;28;19920;-63
2023/02/18 00:56:57;;;;;;;;;;;11.70;99.90;;;;;;5028510;28;20283;-63
2023/02/18 00:59:23;;;;;;;;;;;11.70;99.90;;;;;;5031000;28;20409;-63
2023/02/18 01:01:48;;;;;;;;;;;11.70;99.90;;;;;;5032355;28;20026;-63
2023/02/18 01:04:14;;;;;;;;;;;11.70;99.90;;;;;;5032309;28;20316;-64
2023/02/18 01:06:39;;;;;;;;;;;11.70;99.90;;;;;;5031311;28;19921;-64
2023/02/18 01:09:05;;;;;;;;;;;11.60;99.90;;;;;;5030913;28;20397;-63
2023/02/18 01:11:30;;;;;;;;;;;11.70;99.90;;;;;;5031884;28;19921;-64
2023/02/18 01:13:56;;;;;;;;;;;11.70;99.90;;;;;;5032385;28;20326;-63
2023/02/18 01:16:21;;;;;;;;;;;11.60;99.90;;;;;;5032855;28;19913;-63
2023/02/18 01:18:47;;;;;;;;;;;11.60;99.90;;;;;;5029817;28;19913;-63
2023/02/18 01:21:12;;;;;;;;;;;11.70;99.90;;;;;;5030605;28;19996;-63
2023/02/18 01:23:39;;;;;;;;;;;11.60;99.90;;;;;;5031409;28;19917;-63
2023/02/18 01:26:04;;;;;;;;;;;11.60;99.90;;;;;;5028905;28;20359;-65
2023/02/18 01:28:30;;;;;;;;;;;11.60;99.90;;;;;;5032207;28;19963;-64
2023/02/18 01:30:55;;;;;;;;;;;11.60;99.90;;;;;;5031132;28;19998;-65
2023/02/18 01:33:21;;;;;;;;;;;11.60;99.90;;;;;;5033451;28;19967;-65
2023/02/18 01:35:46;;;;;;;;;;;11.60;99.90;;;;;;5029814;28;19913;-64
2023/02/18 01:38:12;;;;;;;;;;;11.50;99.90;;;;;;5012807;28;19948;-65
2023/02/18 01:40:43;;;;;;;;;;;11.50;99.90;;;;;;5033986;28;19914;-65
2023/02/18 01:43:10;;;;;;;;;;;11.50;99.90;;;;;;5032066;28;19952;-65
2023/02/18 01:45:42;;;;;;;;;;;11.50;99.90;;;;;;5027482;28;19913;-65
2023/02/18 01:48:10;;;;;;;;;;;11.50;99.90;;;;;;5030580;28;19918;-64
2023/02/18 01:50:39;;;;;;;;;;;11.50;99.90;;;;;;5017873;28;19951;-65
2023/02/18 01:53:05;;;;;;;;;;;11.50;99.90;;;;;;5032186;28;20406;-65
2023/02/18 01:55:31;;;;;;;;;;;11.50;99.90;;;;;;5031011;28;19917;-65
2023/02/18 01:57:56;;;;;;;;;;;11.40;99.90;;;;;;5030172;28;19917;-65
2023/02/18 02:00:22;;;;;;;;;;;11.40;99.90;;;;;;5028930;28;19913;-65
2023/02/18 02:02:49;;;;;;;;;;;11.40;99.90;;;;;;5029914;28;19925;-65
2023/02/18 02:05:15;;;;;;;;;;;11.40;99.90;;;;;;5029190;28;19957;-65
2023/02/18 02:07:41;;;;;;;;;;;11.40;99.90;;;;;;5030769;28;19924;-65
2023/02/18 02:10:07;;;;;;;;;;;11.30;99.90;;;;;;5029585;28;19917;-65
2023/02/18 02:12:35;;;;;;;;;;;11.30;99.90;;;;;;5032390;28;20035;-65
2023/02/18 02:15:08;;;;;;;;;;;11.30;99.90;;;;;;5027892;28;19940;-65
2023/02/18 02:17:38;;;;;;;;;;;11.30;99.90;;;;;;5030689;28;19921;-65
2023/02/18 02:20:15;;;;;;;;;;;11.30;99.90;;;;;;5026224;28;19919;-65
2023/02/18 02:22:59;;;;;;;;;;;11.30;99.90;;;;;;5028155;28;19925;-65
2023/02/18 02:25:30;;;;;;;;;;;11.30;99.90;;;;;;5028736;28;19932;-65
2023/02/18 02:28:14;;;;;;;;;;;11.30;99.90;;;;;;5028841;28;19921;-65
2023/02/18 02:30:43;;;;;;;;;;;11.30;99.90;;;;;;5028783;28;19928;-65
2023/02/18 02:33:08;;;;;;;;;;;11.30;99.90;;;;;;5028404;28;20429;-66
2023/02/18 02:35:33;;;;;;;;;;;11.30;99.90;;;;;;5031477;28;19913;-65
2023/02/18 02:38:03;;;;;;;;;;;11.30;99.90;;;;;;5026510;28;19913;-65
2023/02/18 02:40:28;;;;;;;;;;;11.40;99.90;;;;;;5029984;28;19928;-66
2023/02/18 02:42:54;;;;;;;;;;;11.30;99.90;;;;;;5027182;28;19917;-65
2023/02/18 02:45:25;;;;;;;;;;;11.40;99.90;;;;;;5029487;28;19917;-65
2023/02/18 02:48:04;;;;;;;;;;;11.40;99.90;;;;;;5029608;28;19921;-63
2023/02/18 02:50:39;;;;;;;;;;;11.40;99.90;;;;;;5029157;28;20004;-64
2023/02/18 02:53:10;;;;;;;;;;;11.40;99.90;;;;;;5027549;28;19917;-64
2023/02/18 02:55:35;;;;;;;;;;;11.40;99.90;;;;;;5031503;28;19959;-64
2023/02/18 02:58:01;;;;;;;;;;;11.40;99.90;;;;;;5030376;28;20335;-65
2023/02/18 03:00:42;;;;;;;;;;;11.50;99.90;;;;;;5030626;28;19921;-65
2023/02/18 03:03:16;;;;;;;;;;;11.50;99.90;;;;;;5028888;28;19948;-64
2023/02/18 03:05:54;;;;;;;;;;;11.50;99.90;;;;;;5025559;28;20057;-65
2023/02/18 03:08:26;;;;;;;;;;;11.50;99.90;;;;;;5026978;28;19913;-64
2023/02/18 03:11:05;;;;;;;;;;;11.50;99.90;;;;;;5025320;28;19913;-60
2023/02/18 03:13:49;;;;;;;;;;;11.50;99.90;;;;;;5030574;28;19917;-65
2023/02/18 03:16:22;;;;;;;;;;;11.60;99.90;;;;;;5029044;28;19913;-65
2023/02/18 03:19:07;;;;;;;;;;;11.60;99.90;;;;;;5030936;28;19917;-65
2023/02/18 03:21:35;;;;;;;;;;;11.60;99.90;;;;;;5029495;28;19920;-63
2023/02/18 03:24:04;;;;;;;;;;;11.50;99.90;;;;;;5027960;28;20331;-65
2023/02/18 03:26:30;;;;;;;;;;;11.50;99.90;;;;;;5033621;28;19949;-65
2023/02/18 03:28:59;;;;;;;;;;;11.50;99.90;;;;;;5027884;28;19917;-65
2023/02/18 03:31:26;;;;;;;;;;;11.50;99.90;;;;;;5031920;28;19920;-65
2023/02/18 03:33:54;;;;;;;;;;;11.50;99.90;;;;;;5032584;28;19913;-63
2023/02/18 03:36:20;;;;;;;;;;;11.50;99.90;;;;;;5029140;28;19952;-65
2023/02/18 03:38:50;;;;;;;;;;;11.50;99.90;;;;;;5028027;28;19920;-65
2023/02/18 03:41:15;;;;;;;;;;;11.50;99.90;;;;;;5031335;28;19960;-65
2023/02/18 03:43:48;;;;;;;;;;;11.50;99.90;;;;;;5028223;28;19933;-65
2023/02/18 03:46:13;;;;;;;;;;;11.50;99.90;;;;;;5028336;28;19996;-65
2023/02/18 03:48:38;;;;;;;;;;;11.50;99.90;;;;;;5027885;28;20044;-65
2023/02/18 03:51:04;;;;;;;;;;;11.50;99.90;;;;;;5030109;28;19939;-65
2023/02/18 03:53:29;;;;;;;;;;;11.50;99.90;;;;;;5027189;28;19917;-65
2023/02/18 03:55:55;;;;;;;;;;;11.50;99.90;;;;;;5029921;28;19913;-65
2023/02/18 03:58:20;;;;;;;;;;;11.50;99.90;;;;;;5029596;28;19913;-65
2023/02/18 04:00:46;;;;;;;;;;;11.50;99.90;;;;;;5024911;28;20000;-65
2023/02/18 04:03:11;;;;;;;;;;;11.50;99.90;;;;;;5029121;28;19964;-65
2023/02/18 04:05:37;;;;;;;;;;;11.60;99.90;;;;;;5026938;28;19913;-65
2023/02/18 04:08:02;;;;;;;;;;;11.60;99.90;;;;;;5023480;28;19917;-65
2023/02/18 04:10:28;;;;;;;;;;;11.60;99.90;;;;;;5029248;28;19913;-65
2023/02/18 04:12:53;;;;;;;;;;;11.60;99.90;;;;;;5028430;28;19967;-65
2023/02/18 04:15:18;;;;;;;;;;;11.70;99.90;;;;;;5028772;28;19920;-65
2023/02/18 04:17:44;;;;;;;;;;;11.70;99.90;;;;;;5028674;28;20004;-65
2023/02/18 04:20:10;;;;;;;;;;;11.70;99.90;;;;;;5027960;28;19913;-65
2023/02/18 04:22:35;;;;;;;;;;;11.70;99.90;;;;;;5026996;28;20279;-65
2023/02/18 04:25:01;;;;;;;;;;;11.70;99.90;;;;;;5027385;28;19913;-65
2023/02/18 04:27:26;;;;;;;;;;;11.70;99.90;;;;;;5027939;28;19920;-65
2023/02/18 04:29:51;;;;;;;;;;;11.70;99.90;;;;;;5028675;28;19917;-64
2023/02/18 04:32:17;;;;;;;;;;;11.70;99.90;;;;;;5028685;28;20286;-65
2023/02/18 04:34:42;;;;;;;;;;;11.70;99.90;;;;;;5028844;28;20272;-65
2023/02/18 04:37:08;;;;;;;;;;;11.70;99.90;;;;;;5027606;28;19913;-65
2023/02/18 04:39:33;;;;;;;;;;;11.70;99.90;;;;;;5028380;28;20272;-65
2023/02/18 04:41:59;;;;;;;;;;;11.60;99.90;;;;;;5028044;28;19995;-65
2023/02/18 04:44:24;;;;;;;;;;;11.70;99.90;;;;;;5025315;28;19967;-64
2023/02/18 04:46:50;;;;;;;;;;;11.70;99.90;;;;;;5027572;28;20329;-65
2023/02/18 04:49:15;;;;;;;;;;;11.60;99.90;;;;;;5027699;28;19924;-65
2023/02/18 04:51:41;;;;;;;;;;;11.60;99.90;;;;;;5027112;28;19924;-65
2023/02/18 04:54:06;;;;;;;;;;;11.60;99.90;;;;;;5027148;28;19913;-65
2023/02/18 04:56:32;;;;;;;;;;;11.60;99.90;;;;;;5029161;28;19913;-65
2023/02/18 04:58:57;;;;;;;;;;;11.50;99.90;;;;;;5031227;28;19920;-65
2023/02/18 05:01:22;;;;;;;;;;;11.50;99.90;;;;;;5029293;28;20389;-65
2023/02/18 05:03:48;;;;;;;;;;;11.50;99.90;;;;;;5028996;28;20287;-65
2023/02/18 05:06:13;;;;;;;;;;;11.40;99.90;;;;;;5028127;28;19913;-65
2023/02/18 05:08:39;;;;;;;;;;;11.30;99.90;;;;;;5028556;28;19917;-65
2023/02/18 05:11:05;;;;;;;;;;;11.20;99.90;;;;;;5029985;28;19913;-65
2023/02/18 05:13:31;;;;;;;;;;;11.10;99.90;;;;;;5033554;28;19924;-65
2023/02/18 05:15:56;;;;;;;;;;;11.10;99.90;;;;;;5030669;28;19914;-65
2023/02/18 05:18:22;;;;;;;;;;;11.10;99.90;;;;;;5032580;28;19989;-65
2023/02/18 05:20:47;;;;;;;;;;;11.10;99.90;;;;;;5031227;28;19917;-65
2023/02/18 05:23:13;;;;;;;;;;;11.00;99.90;;;;;;5031502;28;19921;-65
2023/02/18 05:25:39;;;;;;;;;;;11.00;99.90;;;;;;5031317;28;20322;-65
2023/02/18 05:28:04;;;;;;;;;;;11.00;99.90;;;;;;5031900;28;19913;-65
2023/02/18 05:30:29;;;;;;;;;;;11.00;99.90;;;;;;5035517;28;20609;-65
2023/02/18 05:32:55;;;;;;;;;;;11.00;99.90;;;;;;5029350;28;20375;-64
2023/02/18 05:35:20;;;;;;;;;;;11.00;99.90;;;;;;5031609;28;20333;-64
2023/02/18 05:37:46;;;;;;;;;;;11.00;99.90;;;;;;5033226;28;19913;-65
2023/02/18 05:40:11;;;;;;;;;;;11.00;99.90;;;;;;5028866;28;20008;-65
2023/02/18 05:42:37;;;;;;;;;;;11.00;99.90;;;;;;5031210;28;19921;-65
2023/02/18 05:45:02;;;;;;;;;;;11.00;99.90;;;;;;5028977;28;19913;-64
2023/02/18 05:47:28;;;;;;;;;;;11.00;99.90;;;;;;5030651;28;19920;-64
2023/02/18 05:49:54;;;;;;;;;;;11.10;99.90;;;;;;5031151;28;19913;-65
2023/02/18 05:52:20;;;;;;;;;;;11.10;99.90;;;;;;5030720;28;19924;-64
2023/02/18 05:54:46;;;;;;;;;;;11.10;99.90;;;;;;5028440;28;20290;-64
2023/02/18 05:57:12;;;;;;;;;;;11.10;99.90;;;;;;5031497;28;19913;-64
2023/02/18 05:59:38;;;;;;;;;;;11.10;99.90;;;;;;5027734;28;19917;-64
2023/02/18 06:02:03;;;;;;;;;;;11.10;99.90;;;;;;5030804;28;19913;-64
2023/02/18 06:04:29;;;;;;;;;;;11.10;99.90;;;;;;5028363;28;21131;-64
2023/02/18 06:06:54;;;;;;;;;;;11.20;99.90;;;;;;5030597;28;19921;-65
2023/02/18 06:09:20;;;;;;;;;;;11.20;99.90;;;;;;5027383;28;19921;-63
2023/02/18 06:11:46;;;;;;;;;;;11.20;99.90;;;;;;5030432;28;19917;-63
2023/02/18 06:14:11;;;;;;;;;;;11.30;99.90;;;;;;5029965;28;19913;-64
2023/02/18 06:16:37;;;;;;;;;;;11.30;99.90;;;;;;5027689;28;20035;-64
2023/02/18 06:19:02;;;;;;;;;;;11.30;99.90;;;;;;5027309;28;20050;-64
2023/02/18 06:21:27;;;;;;;;;;;11.30;99.90;;;;;;5026049;28;19923;-64
2023/02/18 06:23:53;;;;;;;;;;;11.30;99.90;;;;;;5031062;28;19924;-62
2023/02/18 06:26:18;;;;;;;;;;;11.20;99.90;;;;;;5030111;28;20495;-64
2023/02/18 06:28:44;;;;;;;;;;;11.30;99.90;;;;;;5046299;22;19925;-65
2023/02/18 06:31:09;;;;;;;;;;;11.30;99.90;;;;;;5044610;28;19924;-65
2023/02/18 06:33:35;;;;;;;;;;;11.30;99.90;;;;;;5046330;28;19921;-62
2023/02/18 06:36:02;;;;;;;;;;;11.30;99.90;;;;;;5047505;28;19913;-63
2023/02/18 06:38:27;;;;;;;;;;;11.30;99.90;;;;;;5046141;28;20325;-62
2023/02/18 06:40:53;;;;;;;;;;;11.40;99.90;;;;;;5047777;28;19913;-62
2023/02/18 06:43:19;;;;;;;;;;;11.40;99.90;;;;;;5045053;28;20397;-64
2023/02/18 06:45:47;;;;;;;;;;;11.50;99.90;;;;;;5047753;28;19916;-66
2023/02/18 06:48:13;;;;;;;;;;;11.50;99.90;;;;;;5048193;28;19916;-64
2023/02/18 06:50:39;;;;;;;;;;;11.50;99.90;;;;;;5047065;28;20282;-64
2023/02/18 06:53:04;;;;;;;;;;;11.50;99.90;;;;;;5049241;28;19928;-65
2023/02/18 06:55:30;;;;;;;;;;;11.50;99.90;;;;;;5046966;28;19912;-63
2023/02/18 06:57:55;;;;;;;;;;;11.50;99.90;;;;;;5047401;28;19914;-65
2023/02/18 07:00:22;;;;;;;;;;;11.50;99.90;;;;;;5049119;28;20007;-66
2023/02/18 07:02:47;;;;;;;;;;;11.50;99.90;;;;;;5052531;28;20379;-65
2023/02/18 07:05:13;;;;;;;;;;;11.50;99.90;;;;;;5048624;28;19963;-65
2023/02/18 07:07:38;;;;;;;;;;;11.60;99.90;;;;;;5050851;28;19916;-59
2023/02/18 07:10:04;;;;;;;;;;;11.60;99.90;;;;;;5048589;28;19916;-61
2023/02/18 07:12:30;;;;;;;;;;;11.60;99.90;;;;;;5048152;28;19913;-60
2023/02/18 07:14:55;;;;;;;;;;;11.60;99.90;;;;;;5049634;28;20339;-61
2023/02/18 07:17:21;;;;;;;;;;;11.60;99.90;;;;;;5044967;28;19912;-61
2023/02/18 07:19:46;;;;;;;;;;;11.60;99.90;;;;;;5049650;28;19913;-62
2023/02/18 07:22:12;;;;;;;;;;;11.70;99.90;;;;;;5050392;28;19917;-62
2023/02/18 07:24:37;;;;;;;;;;;11.70;99.90;;;;;;5032266;28;19939;-62
2023/02/18 07:27:03;;;;;;;;;;;11.60;99.90;;;;;;5052316;28;19966;-61
2023/02/18 07:29:28;;;;;;;;;;;11.60;99.90;;;;;;5047088;28;19917;-61
2023/02/18 07:31:54;;;;;;;;;;;11.60;99.90;;;;;;5051343;28;19920;-61
2023/02/18 07:34:19;;;;;;;;;;;11.60;99.90;;;;;;5044134;28;20035;-60
2023/02/18 07:36:44;;;;;;;;;;;11.60;99.90;;;;;;5046759;28;19917;-60
2023/02/18 07:39:10;;;;;;;;;;;11.60;99.90;;;;;;5048053;28;20011;-58
2023/02/18 07:41:35;;;;;;;;;;;11.60;99.90;;;;;;5047644;28;19916;-60
2023/02/18 07:44:01;;;;;;;;;;;11.70;99.90;;;;;;5045484;28;20328;-60
2023/02/18 07:46:27;;;;;;;;;;;11.70;99.90;;;;;;5050541;28;19940;-61
2023/02/18 07:48:52;;;;;;;;;;;11.60;99.90;;;;;;5050141;28;19959;-61
2023/02/18 07:51:17;;;;;;;;;;;11.60;99.90;;;;;;5048837;28;19913;-61
2023/02/18 07:53:43;;;;;;;;;;;11.50;99.90;;;;;;5051431;28;19908;-60
2023/02/18 07:56:08;;;;;;;;;;;11.50;99.90;;;;;;5047912;28;19913;-60
2023/02/18 07:58:35;;;;;;;;;;;11.50;99.90;;;;;;5043764;28;19913;-60
2023/02/18 08:01:08;;;;;;;;;;;11.50;99.90;;;;;;5048738;28;19971;-59
2023/02/18 08:03:33;;;;;;;;;;;11.50;99.90;;;;;;5043282;28;20329;-59
2023/02/18 08:05:59;;;;;;;;;;;11.50;99.90;;;;;;5046874;28;19958;-59
2023/02/18 08:08:25;;;;;;;;;;;11.40;99.90;;;;;;5047850;28;19913;-59
2023/02/18 08:10:52;;;;;;;;;;;11.50;99.90;;;;;;5047091;28;20302;-60
2023/02/18 08:13:17;;;;;;;;;;;11.40;99.90;;;;;;5048181;28;19962;-57
2023/02/18 08:15:43;;;;;;;;;;;11.40;99.90;;;;;;5048348;28;19948;-58
2023/02/18 08:18:13;;;;;;;;;;;11.40;99.90;;;;;;5047307;28;20556;-61
2023/02/18 08:20:39;;;;;;;;;;;11.40;99.90;;;;;;5048754;28;19933;-60
2023/02/18 08:23:05;;;;;;;;;;;11.40;99.90;;;;;;5046974;28;19917;-61
2023/02/18 08:25:31;;;;;;;;;;;11.40;99.90;;;;;;5044459;28;19921;-59
2023/02/18 08:27:56;;;;;;;;;;;11.40;99.90;;;;;;5046411;28;19920;-61
2023/02/18 08:30:22;;;;;;;;;;;11.30;99.90;;;;;;5045073;28;20217;-61
2023/02/18 08:32:47;;;;;;;;;;;11.20;99.90;;;;;;5044067;28;19913;-60
2023/02/18 08:35:13;;;;;;;;;;;11.20;99.90;;;;;;5044700;28;19925;-60
2023/02/18 08:37:38;;;;;;;;;;;11.20;99.90;;;;;;5042653;28;20121;-60
2023/02/18 08:40:04;;;;;;;;;;;11.20;99.90;;;;;;5038406;28;19994;-59
2023/02/18 08:42:29;;;;;;;;;;;11.20;99.90;;;;;;5038708;28;19932;-60
2023/02/18 08:44:55;;;;;;;;;;;11.20;99.90;;;;;;5040250;28;19939;-59
2023/02/18 08:47:20;;;;;;;;;;;11.20;99.90;;;;;;5046451;28;19913;-58
2023/02/18 08:49:46;;;;;;;;;;;11.20;99.90;;;;;;5046684;28;20414;-60
2023/02/18 08:52:11;;;;;;;;;;;11.20;99.90;;;;;;5030873;28;19913;-60
2023/02/18 08:54:37;;;;;;;;;;;11.20;99.90;;;;;;5048149;28;19919;-60
2023/02/18 08:57:02;;;;;;;;;;;11.20;99.90;;;;;;5048965;28;20418;-60
2023/02/18 08:59:27;;;;;;;;;;;11.20;99.90;;;;;;5045233;28;20354;-60
2023/02/18 09:01:53;;;;;;;;;;;11.20;99.90;;;;;;5045592;28;19998;-59
2023/02/18 09:04:19;;;;;;;;;;;11.30;99.90;;;;;;5050542;28;19917;-59
2023/02/18 09:06:45;;;;;;;;;;;11.20;99.90;;;;;;5050128;28;19920;-60
2023/02/18 09:09:11;;;;;;;;;;;11.20;99.90;;;;;;5052123;28;20370;-60
2023/02/18 09:11:36;;;;;;;;;;;11.20;99.90;;;;;;5047087;28;19919;-61
2023/02/18 09:14:02;;;;;;;;;;;11.20;99.90;;;;;;5048970;28;20412;-60
2023/02/18 09:16:28;;;;;;;;;;;11.10;99.90;;;;;;5047982;28;20284;-60
2023/02/18 09:18:54;;;;;;;;;;;11.20;99.90;;;;;;5051707;28;20300;-60
2023/02/18 09:21:22;;;;;;;;;;;11.20;99.90;;;;;;5046420;28;19917;-60
2023/02/18 09:23:48;;;;;;;;;;;11.20;99.90;;;;;;5048871;28;19923;-60
2023/02/18 09:26:14;;;;;;;;;;;11.20;99.90;;;;;;5050487;28;19921;-59
2023/02/18 09:28:40;;;;;;;;;;;11.20;99.90;;;;;;5043771;28;20195;-60
2023/02/18 09:31:06;;;;;;;;;;;11.30;99.90;;;;;;5048919;28;19921;-57
2023/02/18 09:33:34;;;;;;;;;;;11.30;99.90;;;;;;5031869;28;20000;-61
2023/02/18 09:36:00;;;;;;;;;;;11.30;99.90;;;;;;5047819;28;19928;-61
2023/02/18 09:38:25;;;;;;;;;;;11.30;99.90;;;;;;5049601;28;19912;-60
2023/02/18 09:40:52;;;;;;;;;;;11.30;99.90;;;;;;5039958;28;19912;-60
2023/02/18 09:43:23;;;;;;;;;;;11.30;99.90;;;;;;5050337;28;19917;-60
2023/02/18 09:45:50;;;;;;;;;;;11.30;99.90;;;;;;5046213;28;19923;-59
2023/02/18 09:48:15;;;;;;;;;;;11.30;99.90;;;;;;5046750;28;20375;-60
2023/02/18 09:50:40;;;;;;;;;;;11.30;99.90;;;;;;5045251;28;19920;-61
2023/02/18 09:53:10;;;;;;;;;;;11.40;99.90;;;;;;5046217;28;20297;-60
2023/02/18 09:55:40;;;;;;;;;;;11.40;99.90;;;;;;5048671;28;19917;-60
2023/02/18 09:58:06;;;;;;;;;;;11.30;99.90;;;;;;5046127;28;19927;-60
2023/02/18 10:00:32;;;;;;;;;;;11.30;99.90;;;;;;5045855;28;19920;-60
2023/02/18 10:03:00;;;;;;;;;;;11.40;99.90;;;;;;5047721;28;19916;-60
2023/02/18 10:05:27;;;;;;;;;;;11.40;99.90;;;;;;5048705;28;19967;-60
2023/02/18 10:07:54;;;;;;;;;;;11.30;99.90;;;;;;5054017;28;19920;-60
2023/02/18 10:10:22;;;;;;;;;;;11.40;99.90;;;;;;5040678;28;20631;-59
2023/02/18 10:12:47;;;;;;;;;;;11.50;99.90;;;;;;5047400;28;19912;-61
2023/02/18 10:15:19;;;;;;;;;;;11.60;99.90;;;;;;5047644;28;20275;-60
2023/02/18 10:17:46;;;;;;;;;;;11.60;99.90;;;;;;5047352;28;19917;-61
2023/02/18 10:20:15;;;;;;;;;;;11.50;99.90;;;;;;5048464;28;20359;-61
2023/02/18 10:22:41;;;;;;;;;;;11.50;99.90;;;;;;5057303;28;19962;-61
2023/02/18 10:25:07;;;;;;;;;;;11.50;99.90;;;;;;5051234;28;20371;-61
2023/02/18 10:27:33;;;;;;;;;;;11.50;99.90;;;;;;5051312;28;19916;-60
2023/02/18 10:30:14;;;;;;;;;;;11.50;99.90;;;;;;5045606;28;19943;-61
2023/02/18 10:32:42;;;;;;;;;;;11.50;99.90;;;;;;5049855;28;19913;-60
2023/02/18 10:35:22;;;;;;;;;;;11.50;99.90;;;;;;5053942;28;19917;-61
2023/02/18 10:38:03;;;;;;;;;;;11.50;99.90;;;;;;5048644;28;19920;-60
2023/02/18 10:40:34;;;;;;;;;;;11.50;99.90;;;;;;5046790;28;19921;-60
2023/02/18 10:43:24;;;;;;;;;;;11.50;99.90;;;;;;5051950;28;19917;-60
2023/02/18 10:45:50;;;;;;;;;;;11.60;99.90;;;;;;5048881;28;19919;-60
2023/02/18 10:48:17;;;;;;;;;;;11.60;99.90;;;;;;5052175;28;19917;-60
2023/02/18 10:50:43;;;;;;;;;;;11.60;99.90;;;;;;5047641;28;19917;-60
2023/02/18 10:53:11;;;;;;;;;;;11.60;99.90;;;;;;5050858;28;20409;-61
2023/02/18 10:55:37;;;;;;;;;;;11.50;99.90;;;;;;5054070;28;19917;-60
2023/02/18 10:58:03;;;;;;;;;;;11.50;99.90;;;;;;5052918;28;19916;-60
2023/02/18 11:00:34;;;;;;;;;;;11.50;99.90;;;;;;5052427;28;19982;-60
2023/02/18 11:03:01;;;;;;;;;;;11.50;99.90;;;;;;5051285;28;19963;-60
2023/02/18 11:05:27;;;;;;;;;;;11.60;99.90;;;;;;5054680;28;19912;-59
2023/02/18 11:07:55;;;;;;;;;;;11.60;99.90;;;;;;5053798;28;19935;-60
2023/02/18 11:10:23;;;;;;;;;;;11.50;99.90;;;;;;5049364;28;19913;-61
2023/02/18 11:12:50;;;;;;;;;;;11.20;99.90;;;;;;5054469;28;19976;-60
2023/02/18 11:15:17;;;;;;;;;;;11.10;99.90;;;;;;5052642;28;20374;-60
2023/02/18 11:17:45;;;;;;;;;;;10.90;99.90;;;;;;5045997;28;20382;-59
2023/02/18 11:20:24;;;;;;;;;;;10.90;99.90;;;;;;5052200;28;21105;-61
2023/02/18 11:22:50;;;;;;;;;;;10.90;99.90;;;;;;5055784;28;19956;-60
2023/02/18 11:25:24;;;;;;;;;;;10.80;99.90;;;;;;5035829;28;20365;-60
2023/02/18 11:27:53;;;;;;;;;;;10.90;99.90;;;;;;5044367;28;20399;-59
2023/02/18 11:30:36;;;;;;;;;;;10.90;99.90;;;;;;5052135;28;19916;-60
2023/02/18 11:33:07;;;;;;;;;;;10.90;99.90;;;;;;5052898;28;19913;-62
2023/02/18 11:35:33;;;;;;;;;;;11.00;99.90;;;;;;5050629;28;19925;-61
2023/02/18 11:38:00;;;;;;;;;;;10.90;99.90;;;;;;5053915;28;20000;-61
2023/02/18 11:40:30;;;;;;;;;;;10.90;99.90;;;;;;5049332;28;19919;-60
2023/02/18 11:43:04;;;;;;;;;;;10.90;99.90;;;;;;5052044;28;19923;-62
2023/02/18 11:45:32;;;;;;;;;;;10.80;99.90;;;;;;5050303;28;19988;-59
2023/02/18 11:47:58;;;;;;;;;;;10.80;99.90;;;;;;5052455;28;19913;-59
2023/02/18 11:50:24;;;;;;;;;;;10.80;99.90;;;;;;5049738;28;19913;-61
2023/02/18 11:52:50;;;;;;;;;;;10.70;99.90;;;;;;5052851;28;20362;-61
2023/02/18 11:55:19;;;;;;;;;;;10.70;99.90;;;;;;5049246;28;19913;-62
2023/02/18 11:57:51;;;;;;;;;;;10.70;99.90;;;;;;5052752;28;19917;-61
2023/02/18 12:00:30;;;;;;;;;;;10.60;99.90;;;;;;5055134;28;19913;-61
2023/02/18 12:02:57;;;;;;;;;;;10.60;99.90;;;;;;5050549;28;20001;-61
2023/02/18 12:05:24;;;;;;;;;;;10.60;99.90;;;;;;5048007;28;20058;-61
2023/02/18 12:07:55;;;;;;;;;;;10.50;99.90;;;;;;5050194;28;19999;-61
2023/02/18 12:10:26;;;;;;;;;;;10.50;99.90;;;;;;5050992;28;20278;-60
2023/02/18 12:12:58;;;;;;;;;;;10.50;99.90;;;;;;5048525;28;20290;-59
2023/02/18 12:15:28;;;;;;;;;;;10.60;99.90;;;;;;5051307;28;19929;-61
2023/02/18 12:17:56;;;;;;;;;;;10.60;99.90;;;;;;5047931;28;20011;-61
2023/02/18 12:20:40;;;;;;;;;;;10.60;99.90;;;;;;5057427;28;19920;-61
2023/02/18 12:23:09;;;;;;;;;;;10.50;99.90;;;;;;5051446;28;19921;-61
2023/02/18 12:25:51;;;;;;;;;;;10.50;99.90;;;;;;5052288;28;20371;-61
2023/02/18 12:28:34;;;;;;;;;;;10.50;99.90;;;;;;5049750;28;19912;-60
2023/02/18 12:31:15;;;;;;;;;;;10.50;99.90;;;;;;5086140;23;19955;-61
2023/02/18 12:33:41;;;;;;;;;;;10.50;99.90;;;;;;5066505;28;20004;-59
2023/02/18 12:36:33;;;;;;;;;;;10.50;99.90;;;;;;5071577;28;20015;-60
2023/02/18 12:39:16;;;;;;;;;;;10.60;99.90;;;;;;5042496;28;19912;-60
2023/02/18 12:41:51;;;;;;;;;;;10.60;99.90;;;;;;5046790;28;20298;-58
2023/02/18 12:44:19;;;;;;;;;;;10.70;99.90;;;;;;5048875;28;19921;-58
2023/02/18 12:46:59;;;;;;;;;;;10.70;99.90;;;;;;5046719;28;19920;-61
2023/02/18 12:49:37;;;;;;;;;;;10.80;99.90;;;;;;5043314;28;20365;-58
2023/02/18 12:52:11;;;;;;;;;;;10.80;99.90;;;;;;5049603;28;20404;-61
2023/02/18 12:54:37;;;;;;;;;;;10.90;99.90;;;;;;5043888;28;20004;-62
2023/02/18 12:57:14;;;;;;;;;;;10.90;99.90;;;;;;5047901;28;20000;-62
2023/02/18 12:59:58;;;;;;;;;;;11.00;99.90;;;;;;5046892;28;20068;-61
2023/02/18 13:02:42;;;;;;;;;;;11.00;99.90;;;;;;5048632;28;19928;-59
2023/02/18 13:05:26;;;;;;;;;;;11.00;99.90;;;;;;5047998;28;19932;-59
2023/02/18 13:08:02;;;;;;;;;;;10.90;99.90;;;;;;5049887;28;20000;-59
2023/02/18 13:10:27;;;;;;;;;;;10.90;99.90;;;;;;5049606;28;19913;-60
2023/02/18 13:13:11;;;;;;;;;;;10.90;99.90;;;;;;5049538;28;19913;-59
2023/02/18 13:15:39;;;;;;;;;;;10.90;99.90;;;;;;5044838;28;19921;-61
2023/02/18 13:18:09;;;;;;;;;;;10.90;99.90;;;;;;5047171;28;19928;-60
2023/02/18 13:20:52;;;;;;;;;;;10.90;99.90;;;;;;5051063;28;20334;-60
2023/02/18 13:23:20;;;;;;;;;;;10.90;99.90;;;;;;5050934;28;19913;-60
2023/02/18 13:25:46;;;;;;;;;;;11.00;99.90;;;;;;5043731;28;19916;-60
2023/02/18 13:28:16;;;;;;;;;;;11.00;99.90;;;;;;5048758;28;20331;-58
2023/02/18 13:30:58;;;;;;;;;;;11.10;99.90;;;;;;5042234;28;20012;-60
2023/02/18 13:33:40;;;;;;;;;;;11.00;99.90;;;;;;5048842;28;20353;-60
2023/02/18 13:36:12;;;;;;;;;;;11.10;99.90;;;;;;5047959;28;20389;-60
2023/02/18 13:38:56;;;;;;;;;;;11.10;99.90;;;;;;5047969;28;19914;-59
2023/02/18 13:41:21;;;;;;;;;;;11.00;99.90;;;;;;5047004;28;19967;-59
2023/02/18 13:43:47;;;;;;;;;;;11.00;99.90;;;;;;5047911;28;20662;-61
2023/02/18 13:46:17;;;;;;;;;;;11.00;99.90;;;;;;5046734;28;19913;-61
2023/02/18 13:48:45;;;;;;;;;;;11.00;99.90;;;;;;5045632;28;19924;-61
2023/02/18 13:51:12;;;;;;;;;;;11.00;99.90;;;;;;5041105;28;19917;-60
2023/02/18 13:53:41;;;;;;;;;;;11.00;99.90;;;;;;5050024;28;20286;-61
2023/02/18 13:56:19;;;;;;;;;;;10.90;99.90;;;;;;5044048;28;19924;-61
2023/02/18 13:58:49;;;;;;;;;;;11.00;99.90;;;;;;5043090;28;19916;-60
2023/02/18 14:01:19;;;;;;;;;;;11.00;99.90;;;;;;5043650;28;19960;-61
2023/02/18 14:03:45;;;;;;;;;;;11.00;99.90;;;;;;5043831;28;19928;-61
2023/02/18 14:06:13;;;;;;;;;;;10.90;99.90;;;;;;5048500;28;19913;-61
2023/02/18 14:08:39;;;;;;;;;;;11.00;99.90;;;;;;5048571;28;19913;-60
2023/02/18 14:11:10;;;;;;;;;;;11.00;99.90;;;;;;5049278;28;20011;-60
2023/02/18 14:13:46;;;;;;;;;;;11.00;99.90;;;;;;5047200;28;19921;-61
2023/02/18 14:16:11;;;;;;;;;;;10.90;99.90;;;;;;5047378;28;19966;-61
2023/02/18 14:18:39;;;;;;;;;;;10.90;99.90;;;;;;5046921;28;19925;-59
2023/02/18 14:21:11;;;;;;;;;;;10.90;99.90;;;;;;5047984;28;19982;-60